sensor_id;sensor_type;location;lat;lon;timestamp;P1;durP1;ratioP1;P2;durP2;ratioP2
50417;SDS011;36346;48.280;14.292;2023-09-19T00:00:47;1.48;;;1.48;;
50417;SDS011;36346;48.280;14.292;2023-09-19T00:03:16;1.63;;;1.63;;
50417;SDS011;36346;48.280;14.292;2023-09-19T00:05:45;1.50;;;1.50;;
50417;SDS011;36346;48.280;14.292;2023-09-19T00:08:13;1.48;;;1.48;;
50417;SDS011;36346;48.280;14.292;2023-09-19T00:10:42;1.45;;;1.45;;
50417;SDS011;36346;48.280;14.292;2023-09-19T00:13:10;1.70;;;1.70;;
50417;SDS011;36346;48.280;14.292;2023-09-19T00:15:43;1.94;;;1.94;;
50417;SDS011;36346;48.280;14.292;2023-09-19T00:18:18;1.81;;;1.81;;
50417;SDS011;36346;48.280;14.292;2023-09-19T00:20:48;1.83;;;1.83;;
50417;SDS011;36346;48.280;14.292;2023-09-19T00:23:18;1.63;;;1.63;;
50417;SDS011;36346;48.280;14.292;2023-09-19T00:25:47;1.75;;;1.75;;
50417;SDS011;36346;48.280;14.292;2023-09-19T00:28:15;1.55;;;1.55;;
50417;SDS011;36346;48.280;14.292;2023-09-19T00:30:45;1.57;;;1.57;;
50417;SDS011;36346;48.280;14.292;2023-09-19T00:33:15;1.56;;;1.56;;
50417;SDS011;36346;48.280;14.292;2023-09-19T00:35:51;1.39;;;1.39;;
50417;SDS011;36346;48.280;14.292;2023-09-19T00:38:21;1.38;;;1.38;;
50417;SDS011;36346;48.280;14.292;2023-09-19T00:40:52;1.55;;;1.55;;
50417;SDS011;36346;48.280;14.292;2023-09-19T00:43:22;1.49;;;1.49;;
50417;SDS011;36346;48.280;14.292;2023-09-19T00:45:54;1.70;;;1.70;;
50417;SDS011;36346;48.280;14.292;2023-09-19T00:48:24;1.61;;;1.61;;
50417;SDS011;36346;48.280;14.292;2023-09-19T00:50:55;1.67;;;1.67;;
50417;SDS011;36346;48.280;14.292;2023-09-19T00:53:25;1.42;;;1.42;;
50417;SDS011;36346;48.280;14.292;2023-09-19T00:55:54;1.54;;;1.54;;
50417;SDS011;36346;48.280;14.292;2023-09-19T00:58:23;1.65;;;1.65;;
50417;SDS011;36346;48.280;14.292;2023-09-19T01:00:51;1.54;;;1.54;;
50417;SDS011;36346;48.280;14.292;2023-09-19T01:03:21;1.44;;;1.44;;
50417;SDS011;36346;48.280;14.292;2023-09-19T01:05:50;1.55;;;1.55;;
50417;SDS011;36346;48.280;14.292;2023-09-19T01:08:19;1.72;;;1.72;;
50417;SDS011;36346;48.280;14.292;2023-09-19T01:10:55;1.62;;;1.62;;
50417;SDS011;36346;48.280;14.292;2023-09-19T01:13:41;1.62;;;1.62;;
50417;SDS011;36346;48.280;14.292;2023-09-19T01:21:22;1.49;;;1.49;;
50417;SDS011;36346;48.280;14.292;2023-09-19T01:24:04;1.63;;;1.63;;
50417;SDS011;36346;48.280;14.292;2023-09-19T01:29:45;1.63;;;1.63;;
50417;SDS011;36346;48.280;14.292;2023-09-19T01:32:19;1.83;;;1.83;;
50417;SDS011;36346;48.280;14.292;2023-09-19T01:37:24;2.24;;;2.24;;
50417;SDS011;36346;48.280;14.292;2023-09-19T01:39:55;1.79;;;1.78;;
50417;SDS011;36346;48.280;14.292;2023-09-19T01:51:06;1.90;;;1.90;;
50417;SDS011;36346;48.280;14.292;2023-09-19T01:53:43;1.87;;;1.87;;
50417;SDS011;36346;48.280;14.292;2023-09-19T01:56:38;1.90;;;1.89;;
50417;SDS011;36346;48.280;14.292;2023-09-19T01:59:34;2.03;;;2.03;;
50417;SDS011;36346;48.280;14.292;2023-09-19T02:02:05;1.97;;;1.97;;
50417;SDS011;36346;48.280;14.292;2023-09-19T02:04:35;1.86;;;1.86;;
50417;SDS011;36346;48.280;14.292;2023-09-19T02:07:03;1.89;;;1.89;;
50417;SDS011;36346;48.280;14.292;2023-09-19T02:09:33;1.96;;;1.95;;
50417;SDS011;36346;48.280;14.292;2023-09-19T02:12:03;1.82;;;1.82;;
50417;SDS011;36346;48.280;14.292;2023-09-19T02:14:34;1.73;;;1.73;;
50417;SDS011;36346;48.280;14.292;2023-09-19T02:17:03;2.03;;;2.03;;
50417;SDS011;36346;48.280;14.292;2023-09-19T02:19:35;2.01;;;2.01;;
50417;SDS011;36346;48.280;14.292;2023-09-19T02:22:04;2.04;;;2.04;;
50417;SDS011;36346;48.280;14.292;2023-09-19T02:24:37;2.44;;;2.44;;
50417;SDS011;36346;48.280;14.292;2023-09-19T02:27:06;2.21;;;2.21;;
50417;SDS011;36346;48.280;14.292;2023-09-19T02:29:35;2.37;;;2.37;;
50417;SDS011;36346;48.280;14.292;2023-09-19T02:32:03;2.84;;;2.84;;
50417;SDS011;36346;48.280;14.292;2023-09-19T02:34:32;2.85;;;2.85;;
50417;SDS011;36346;48.280;14.292;2023-09-19T02:37:00;2.58;;;2.58;;
50417;SDS011;36346;48.280;14.292;2023-09-19T02:39:27;2.80;;;2.80;;
50417;SDS011;36346;48.280;14.292;2023-09-19T02:41:56;3.27;;;3.27;;
50417;SDS011;36346;48.280;14.292;2023-09-19T02:44:24;3.08;;;3.08;;
50417;SDS011;36346;48.280;14.292;2023-09-19T02:46:52;3.42;;;3.42;;
50417;SDS011;36346;48.280;14.292;2023-09-19T02:49:22;4.03;;;4.03;;
50417;SDS011;36346;48.280;14.292;2023-09-19T02:51:51;4.07;;;4.07;;
50417;SDS011;36346;48.280;14.292;2023-09-19T02:54:19;3.80;;;3.80;;
50417;SDS011;36346;48.280;14.292;2023-09-19T02:56:48;3.73;;;3.73;;
50417;SDS011;36346;48.280;14.292;2023-09-19T02:59:15;3.42;;;3.42;;
50417;SDS011;36346;48.280;14.292;2023-09-19T03:01:43;3.37;;;3.37;;
50417;SDS011;36346;48.280;14.292;2023-09-19T03:04:11;3.18;;;3.18;;
50417;SDS011;36346;48.280;14.292;2023-09-19T03:06:40;3.28;;;3.28;;
50417;SDS011;36346;48.280;14.292;2023-09-19T03:09:08;3.46;;;3.46;;
50417;SDS011;36346;48.280;14.292;2023-09-19T03:11:39;3.51;;;3.51;;
50417;SDS011;36346;48.280;14.292;2023-09-19T03:14:07;2.95;;;2.95;;
50417;SDS011;36346;48.280;14.292;2023-09-19T03:16:37;3.31;;;3.31;;
50417;SDS011;36346;48.280;14.292;2023-09-19T03:19:06;2.88;;;2.88;;
50417;SDS011;36346;48.280;14.292;2023-09-19T03:21:34;2.58;;;2.58;;
50417;SDS011;36346;48.280;14.292;2023-09-19T03:24:03;2.32;;;2.32;;
50417;SDS011;36346;48.280;14.292;2023-09-19T03:26:32;2.44;;;2.44;;
50417;SDS011;36346;48.280;14.292;2023-09-19T03:29:03;2.43;;;2.43;;
50417;SDS011;36346;48.280;14.292;2023-09-19T03:31:34;2.24;;;2.23;;
50417;SDS011;36346;48.280;14.292;2023-09-19T03:34:06;2.32;;;2.30;;
50417;SDS011;36346;48.280;14.292;2023-09-19T03:36:33;2.28;;;2.28;;
50417;SDS011;36346;48.280;14.292;2023-09-19T03:39:02;2.05;;;2.05;;
50417;SDS011;36346;48.280;14.292;2023-09-19T03:41:33;2.03;;;2.03;;
50417;SDS011;36346;48.280;14.292;2023-09-19T03:44:01;2.11;;;2.11;;
50417;SDS011;36346;48.280;14.292;2023-09-19T03:46:28;2.01;;;2.01;;
50417;SDS011;36346;48.280;14.292;2023-09-19T03:48:58;2.05;;;2.05;;
50417;SDS011;36346;48.280;14.292;2023-09-19T03:51:26;2.11;;;2.11;;
50417;SDS011;36346;48.280;14.292;2023-09-19T03:53:53;1.97;;;1.97;;
50417;SDS011;36346;48.280;14.292;2023-09-19T03:56:21;2.75;;;2.75;;
50417;SDS011;36346;48.280;14.292;2023-09-19T03:58:49;2.59;;;2.59;;
50417;SDS011;36346;48.280;14.292;2023-09-19T04:01:18;2.41;;;2.41;;
50417;SDS011;36346;48.280;14.292;2023-09-19T04:03:46;2.03;;;2.03;;
50417;SDS011;36346;48.280;14.292;2023-09-19T04:06:15;2.01;;;2.01;;
50417;SDS011;36346;48.280;14.292;2023-09-19T04:08:44;2.06;;;2.06;;
50417;SDS011;36346;48.280;14.292;2023-09-19T04:11:12;2.11;;;2.11;;
50417;SDS011;36346;48.280;14.292;2023-09-19T04:13:40;2.05;;;2.05;;
50417;SDS011;36346;48.280;14.292;2023-09-19T04:16:09;2.25;;;2.25;;
50417;SDS011;36346;48.280;14.292;2023-09-19T04:18:38;2.34;;;2.34;;
50417;SDS011;36346;48.280;14.292;2023-09-19T04:21:08;2.04;;;2.04;;
50417;SDS011;36346;48.280;14.292;2023-09-19T04:23:36;2.23;;;2.21;;
50417;SDS011;36346;48.280;14.292;2023-09-19T04:26:04;2.47;;;2.47;;
50417;SDS011;36346;48.280;14.292;2023-09-19T04:28:32;2.37;;;2.37;;
50417;SDS011;36346;48.280;14.292;2023-09-19T04:31:02;2.52;;;2.52;;
50417;SDS011;36346;48.280;14.292;2023-09-19T04:33:30;2.62;;;2.62;;
50417;SDS011;36346;48.280;14.292;2023-09-19T04:35:58;2.67;;;2.67;;
50417;SDS011;36346;48.280;14.292;2023-09-19T04:38:38;2.42;;;2.42;;
50417;SDS011;36346;48.280;14.292;2023-09-19T04:41:05;2.57;;;2.57;;
50417;SDS011;36346;48.280;14.292;2023-09-19T04:43:33;2.68;;;2.68;;
50417;SDS011;36346;48.280;14.292;2023-09-19T04:46:01;2.78;;;2.78;;
50417;SDS011;36346;48.280;14.292;2023-09-19T04:48:32;3.22;;;3.22;;
50417;SDS011;36346;48.280;14.292;2023-09-19T04:51:02;2.76;;;2.76;;
50417;SDS011;36346;48.280;14.292;2023-09-19T04:53:30;2.68;;;2.68;;
50417;SDS011;36346;48.280;14.292;2023-09-19T04:55:59;2.86;;;2.86;;
50417;SDS011;36346;48.280;14.292;2023-09-19T04:58:27;2.78;;;2.78;;
50417;SDS011;36346;48.280;14.292;2023-09-19T05:00:55;2.83;;;2.83;;
50417;SDS011;36346;48.280;14.292;2023-09-19T05:03:23;2.61;;;2.61;;
50417;SDS011;36346;48.280;14.292;2023-09-19T05:05:51;2.47;;;2.47;;
50417;SDS011;36346;48.280;14.292;2023-09-19T05:08:19;2.27;;;2.27;;
50417;SDS011;36346;48.280;14.292;2023-09-19T05:10:49;2.46;;;2.46;;
50417;SDS011;36346;48.280;14.292;2023-09-19T05:13:17;2.53;;;2.53;;
50417;SDS011;36346;48.280;14.292;2023-09-19T05:15:45;2.27;;;2.27;;
50417;SDS011;36346;48.280;14.292;2023-09-19T05:18:13;2.43;;;2.43;;
50417;SDS011;36346;48.280;14.292;2023-09-19T05:20:41;2.48;;;2.48;;
50417;SDS011;36346;48.280;14.292;2023-09-19T05:23:09;2.59;;;2.59;;
50417;SDS011;36346;48.280;14.292;2023-09-19T05:25:40;2.22;;;2.21;;
50417;SDS011;36346;48.280;14.292;2023-09-19T05:28:09;2.52;;;2.51;;
50417;SDS011;36346;48.280;14.292;2023-09-19T05:30:39;2.46;;;2.45;;
50417;SDS011;36346;48.280;14.292;2023-09-19T05:33:07;2.58;;;2.58;;
50417;SDS011;36346;48.280;14.292;2023-09-19T05:35:36;2.37;;;2.37;;
50417;SDS011;36346;48.280;14.292;2023-09-19T05:38:09;2.40;;;2.40;;
50417;SDS011;36346;48.280;14.292;2023-09-19T05:40:37;2.36;;;2.36;;
50417;SDS011;36346;48.280;14.292;2023-09-19T05:43:06;2.47;;;2.47;;
50417;SDS011;36346;48.280;14.292;2023-09-19T05:45:34;2.18;;;2.18;;
50417;SDS011;36346;48.280;14.292;2023-09-19T05:48:07;2.14;;;2.14;;
50417;SDS011;36346;48.280;14.292;2023-09-19T05:50:37;2.15;;;2.15;;
50417;SDS011;36346;48.280;14.292;2023-09-19T05:53:05;2.26;;;2.26;;
50417;SDS011;36346;48.280;14.292;2023-09-19T05:55:33;2.25;;;2.25;;
50417;SDS011;36346;48.280;14.292;2023-09-19T05:58:03;2.66;;;2.66;;
50417;SDS011;36346;48.280;14.292;2023-09-19T06:00:31;3.94;;;3.85;;
50417;SDS011;36346;48.280;14.292;2023-09-19T06:02:59;3.68;;;3.44;;
50417;SDS011;36346;48.280;14.292;2023-09-19T06:05:27;3.72;;;3.44;;
50417;SDS011;36346;48.280;14.292;2023-09-19T06:07:56;2.81;;;2.62;;
50417;SDS011;36346;48.280;14.292;2023-09-19T06:10:28;2.44;;;2.34;;
50417;SDS011;36346;48.280;14.292;2023-09-19T06:12:56;2.37;;;2.34;;
50417;SDS011;36346;48.280;14.292;2023-09-19T06:15:26;2.39;;;2.37;;
50417;SDS011;36346;48.280;14.292;2023-09-19T06:17:54;2.03;;;2.02;;
50417;SDS011;36346;48.280;14.292;2023-09-19T06:20:23;2.31;;;2.31;;
50417;SDS011;36346;48.280;14.292;2023-09-19T06:22:53;2.36;;;2.33;;
50417;SDS011;36346;48.280;14.292;2023-09-19T06:25:21;1.94;;;1.92;;
50417;SDS011;36346;48.280;14.292;2023-09-19T06:27:51;1.92;;;1.90;;
50417;SDS011;36346;48.280;14.292;2023-09-19T06:30:24;1.87;;;1.86;;
50417;SDS011;36346;48.280;14.292;2023-09-19T06:32:59;1.93;;;1.92;;
50417;SDS011;36346;48.280;14.292;2023-09-19T06:35:32;2.01;;;1.99;;
50417;SDS011;36346;48.280;14.292;2023-09-19T06:38:03;2.18;;;2.18;;
50417;SDS011;36346;48.280;14.292;2023-09-19T06:40:33;1.93;;;1.93;;
50417;SDS011;36346;48.280;14.292;2023-09-19T06:43:02;1.85;;;1.85;;
50417;SDS011;36346;48.280;14.292;2023-09-19T06:45:30;2.04;;;2.04;;
50417;SDS011;36346;48.280;14.292;2023-09-19T06:47:59;2.00;;;2.00;;
50417;SDS011;36346;48.280;14.292;2023-09-19T06:50:28;2.06;;;2.06;;
50417;SDS011;36346;48.280;14.292;2023-09-19T06:52:58;1.75;;;1.75;;
50417;SDS011;36346;48.280;14.292;2023-09-19T06:55:27;1.98;;;1.98;;
50417;SDS011;36346;48.280;14.292;2023-09-19T06:58:00;2.17;;;2.16;;
50417;SDS011;36346;48.280;14.292;2023-09-19T07:00:28;2.02;;;2.02;;
50417;SDS011;36346;48.280;14.292;2023-09-19T07:02:59;2.03;;;2.03;;
50417;SDS011;36346;48.280;14.292;2023-09-19T07:05:29;2.04;;;2.04;;
50417;SDS011;36346;48.280;14.292;2023-09-19T07:07:59;1.65;;;1.65;;
50417;SDS011;36346;48.280;14.292;2023-09-19T07:10:28;1.76;;;1.76;;
50417;SDS011;36346;48.280;14.292;2023-09-19T07:12:57;1.74;;;1.74;;
50417;SDS011;36346;48.280;14.292;2023-09-19T07:15:27;1.86;;;1.86;;
50417;SDS011;36346;48.280;14.292;2023-09-19T07:17:55;1.73;;;1.73;;
50417;SDS011;36346;48.280;14.292;2023-09-19T07:20:24;2.08;;;2.07;;
50417;SDS011;36346;48.280;14.292;2023-09-19T07:22:59;2.00;;;2.00;;
50417;SDS011;36346;48.280;14.292;2023-09-19T07:25:27;1.78;;;1.78;;
50417;SDS011;36346;48.280;14.292;2023-09-19T07:27:55;1.52;;;1.52;;
50417;SDS011;36346;48.280;14.292;2023-09-19T07:30:24;1.67;;;1.67;;
50417;SDS011;36346;48.280;14.292;2023-09-19T07:32:53;1.86;;;1.86;;
50417;SDS011;36346;48.280;14.292;2023-09-19T07:35:21;1.86;;;1.86;;
50417;SDS011;36346;48.280;14.292;2023-09-19T07:37:49;1.73;;;1.73;;
50417;SDS011;36346;48.280;14.292;2023-09-19T07:40:19;1.70;;;1.70;;
50417;SDS011;36346;48.280;14.292;2023-09-19T07:42:48;1.82;;;1.82;;
50417;SDS011;36346;48.280;14.292;2023-09-19T07:45:17;1.88;;;1.88;;
50417;SDS011;36346;48.280;14.292;2023-09-19T07:47:46;2.02;;;2.02;;
50417;SDS011;36346;48.280;14.292;2023-09-19T07:50:15;1.68;;;1.68;;
50417;SDS011;36346;48.280;14.292;2023-09-19T07:52:47;1.66;;;1.66;;
50417;SDS011;36346;48.280;14.292;2023-09-19T07:55:18;1.74;;;1.74;;
50417;SDS011;36346;48.280;14.292;2023-09-19T07:57:47;1.62;;;1.62;;
50417;SDS011;36346;48.280;14.292;2023-09-19T08:00:16;1.81;;;1.81;;
50417;SDS011;36346;48.280;14.292;2023-09-19T08:02:44;2.48;;;2.48;;
50417;SDS011;36346;48.280;14.292;2023-09-19T08:05:14;1.87;;;1.87;;
50417;SDS011;36346;48.280;14.292;2023-09-19T08:07:45;1.71;;;1.71;;
50417;SDS011;36346;48.280;14.292;2023-09-19T08:10:16;1.75;;;1.74;;
50417;SDS011;36346;48.280;14.292;2023-09-19T08:12:46;1.57;;;1.57;;
50417;SDS011;36346;48.280;14.292;2023-09-19T08:15:17;1.88;;;1.87;;
50417;SDS011;36346;48.280;14.292;2023-09-19T08:17:48;1.63;;;1.63;;
50417;SDS011;36346;48.280;14.292;2023-09-19T08:20:16;2.16;;;2.16;;
50417;SDS011;36346;48.280;14.292;2023-09-19T08:22:51;1.86;;;1.85;;
50417;SDS011;36346;48.280;14.292;2023-09-19T08:25:23;2.19;;;2.19;;
50417;SDS011;36346;48.280;14.292;2023-09-19T08:27:54;2.17;;;2.17;;
50417;SDS011;36346;48.280;14.292;2023-09-19T08:30:25;1.67;;;1.67;;
50417;SDS011;36346;48.280;14.292;2023-09-19T08:32:58;1.70;;;1.70;;
50417;SDS011;36346;48.280;14.292;2023-09-19T08:35:27;1.55;;;1.55;;
50417;SDS011;36346;48.280;14.292;2023-09-19T08:37:56;1.87;;;1.87;;
50417;SDS011;36346;48.280;14.292;2023-09-19T08:40:24;2.09;;;2.09;;
50417;SDS011;36346;48.280;14.292;2023-09-19T08:42:58;1.74;;;1.74;;
50417;SDS011;36346;48.280;14.292;2023-09-19T08:45:26;1.85;;;1.85;;
50417;SDS011;36346;48.280;14.292;2023-09-19T08:48:00;2.04;;;2.04;;
50417;SDS011;36346;48.280;14.292;2023-09-19T08:50:55;1.93;;;1.93;;
50417;SDS011;36346;48.280;14.292;2023-09-19T08:53:36;1.88;;;1.88;;
50417;SDS011;36346;48.280;14.292;2023-09-19T08:56:10;2.27;;;2.27;;
50417;SDS011;36346;48.280;14.292;2023-09-19T08:58:57;1.60;;;1.60;;
50417;SDS011;36346;48.280;14.292;2023-09-19T09:01:32;1.75;;;1.75;;
50417;SDS011;36346;48.280;14.292;2023-09-19T09:04:01;1.72;;;1.72;;
50417;SDS011;36346;48.280;14.292;2023-09-19T09:06:30;1.61;;;1.60;;
50417;SDS011;36346;48.280;14.292;2023-09-19T09:09:00;1.62;;;1.61;;
50417;SDS011;36346;48.280;14.292;2023-09-19T09:11:29;1.59;;;1.59;;
50417;SDS011;36346;48.280;14.292;2023-09-19T09:14:01;1.70;;;1.69;;
50417;SDS011;36346;48.280;14.292;2023-09-19T09:16:29;1.58;;;1.57;;
50417;SDS011;36346;48.280;14.292;2023-09-19T09:18:58;1.51;;;1.51;;
50417;SDS011;36346;48.280;14.292;2023-09-19T09:21:27;1.54;;;1.53;;
50417;SDS011;36346;48.280;14.292;2023-09-19T09:23:55;1.67;;;1.66;;
50417;SDS011;36346;48.280;14.292;2023-09-19T09:29:07;1.74;;;1.72;;
50417;SDS011;36346;48.280;14.292;2023-09-19T09:31:35;1.38;;;1.37;;
50417;SDS011;36346;48.280;14.292;2023-09-19T09:34:04;1.45;;;1.45;;
50417;SDS011;36346;48.280;14.292;2023-09-19T09:36:33;1.60;;;1.60;;
50417;SDS011;36346;48.280;14.292;2023-09-19T09:39:01;1.84;;;1.84;;
50417;SDS011;36346;48.280;14.292;2023-09-19T09:41:43;1.81;;;1.81;;
50417;SDS011;36346;48.280;14.292;2023-09-19T09:44:17;1.70;;;1.70;;
50417;SDS011;36346;48.280;14.292;2023-09-19T09:46:47;1.83;;;1.83;;
50417;SDS011;36346;48.280;14.292;2023-09-19T09:49:26;1.66;;;1.66;;
50417;SDS011;36346;48.280;14.292;2023-09-19T09:52:05;1.62;;;1.62;;
50417;SDS011;36346;48.280;14.292;2023-09-19T09:54:38;1.55;;;1.55;;
50417;SDS011;36346;48.280;14.292;2023-09-19T09:57:10;1.50;;;1.50;;
50417;SDS011;36346;48.280;14.292;2023-09-19T10:02:24;1.55;;;1.55;;
50417;SDS011;36346;48.280;14.292;2023-09-19T10:04:57;1.23;;;1.23;;
50417;SDS011;36346;48.280;14.292;2023-09-19T10:07:31;1.51;;;1.51;;
50417;SDS011;36346;48.280;14.292;2023-09-19T10:10:34;1.53;;;1.53;;
50417;SDS011;36346;48.280;14.292;2023-09-19T10:13:09;1.62;;;1.62;;
50417;SDS011;36346;48.280;14.292;2023-09-19T10:15:49;1.59;;;1.59;;
50417;SDS011;36346;48.280;14.292;2023-09-19T10:18:24;1.53;;;1.53;;
50417;SDS011;36346;48.280;14.292;2023-09-19T10:20:56;1.42;;;1.42;;
50417;SDS011;36346;48.280;14.292;2023-09-19T10:23:24;1.49;;;1.49;;
50417;SDS011;36346;48.280;14.292;2023-09-19T10:25:53;1.50;;;1.50;;
50417;SDS011;36346;48.280;14.292;2023-09-19T10:28:22;2.08;;;2.08;;
50417;SDS011;36346;48.280;14.292;2023-09-19T10:30:51;2.86;;;2.86;;
50417;SDS011;36346;48.280;14.292;2023-09-19T10:33:23;1.99;;;1.99;;
50417;SDS011;36346;48.280;14.292;2023-09-19T10:35:55;1.86;;;1.86;;
50417;SDS011;36346;48.280;14.292;2023-09-19T10:38:27;1.79;;;1.79;;
50417;SDS011;36346;48.280;14.292;2023-09-19T10:40:57;1.72;;;1.72;;
50417;SDS011;36346;48.280;14.292;2023-09-19T10:43:29;1.50;;;1.50;;
50417;SDS011;36346;48.280;14.292;2023-09-19T10:46:08;1.60;;;1.59;;
50417;SDS011;36346;48.280;14.292;2023-09-19T10:48:39;1.60;;;1.60;;
50417;SDS011;36346;48.280;14.292;2023-09-19T10:51:12;1.49;;;1.49;;
50417;SDS011;36346;48.280;14.292;2023-09-19T10:56:25;1.26;;;1.26;;
50417;SDS011;36346;48.280;14.292;2023-09-19T10:59:08;1.45;;;1.45;;
50417;SDS011;36346;48.280;14.292;2023-09-19T11:07:03;1.48;;;1.48;;
50417;SDS011;36346;48.280;14.292;2023-09-19T11:09:45;1.57;;;1.57;;
50417;SDS011;36346;48.280;14.292;2023-09-19T11:14:57;1.62;;;1.62;;
50417;SDS011;36346;48.280;14.292;2023-09-19T11:28:29;1.48;;;1.48;;
50417;SDS011;36346;48.280;14.292;2023-09-19T11:30:59;1.43;;;1.43;;
50417;SDS011;36346;48.280;14.292;2023-09-19T11:40:05;1.24;;;1.24;;
50417;SDS011;36346;48.280;14.292;2023-09-19T11:42:46;1.36;;;1.36;;
50417;SDS011;36346;48.280;14.292;2023-09-19T11:48:13;1.31;;;1.31;;
50417;SDS011;36346;48.280;14.292;2023-09-19T11:50:44;1.37;;;1.37;;
50417;SDS011;36346;48.280;14.292;2023-09-19T11:53:13;1.66;;;1.66;;
50417;SDS011;36346;48.280;14.292;2023-09-19T11:55:44;1.88;;;1.88;;
50417;SDS011;36346;48.280;14.292;2023-09-19T11:58:16;1.59;;;1.59;;
50417;SDS011;36346;48.280;14.292;2023-09-19T12:00:46;1.70;;;1.70;;
50417;SDS011;36346;48.280;14.292;2023-09-19T12:03:22;1.71;;;1.71;;
50417;SDS011;36346;48.280;14.292;2023-09-19T12:05:50;1.55;;;1.55;;
50417;SDS011;36346;48.280;14.292;2023-09-19T12:08:19;1.36;;;1.36;;
50417;SDS011;36346;48.280;14.292;2023-09-19T12:10:50;1.42;;;1.42;;
50417;SDS011;36346;48.280;14.292;2023-09-19T12:13:23;1.20;;;1.20;;
50417;SDS011;36346;48.280;14.292;2023-09-19T12:15:51;1.47;;;1.47;;
50417;SDS011;36346;48.280;14.292;2023-09-19T12:18:27;1.67;;;1.67;;
50417;SDS011;36346;48.280;14.292;2023-09-19T12:20:57;1.84;;;1.84;;
50417;SDS011;36346;48.280;14.292;2023-09-19T12:23:25;1.61;;;1.61;;
50417;SDS011;36346;48.280;14.292;2023-09-19T12:25:54;1.35;;;1.35;;
50417;SDS011;36346;48.280;14.292;2023-09-19T12:28:26;1.29;;;1.29;;
50417;SDS011;36346;48.280;14.292;2023-09-19T12:30:55;1.32;;;1.32;;
50417;SDS011;36346;48.280;14.292;2023-09-19T12:33:23;1.42;;;1.42;;
50417;SDS011;36346;48.280;14.292;2023-09-19T12:35:54;1.34;;;1.34;;
50417;SDS011;36346;48.280;14.292;2023-09-19T12:38:25;1.44;;;1.44;;
50417;SDS011;36346;48.280;14.292;2023-09-19T12:40:56;1.36;;;1.36;;
50417;SDS011;36346;48.280;14.292;2023-09-19T12:43:30;1.42;;;1.42;;
50417;SDS011;36346;48.280;14.292;2023-09-19T12:46:07;1.42;;;1.42;;
50417;SDS011;36346;48.280;14.292;2023-09-19T12:48:36;1.38;;;1.38;;
50417;SDS011;36346;48.280;14.292;2023-09-19T12:51:06;1.49;;;1.49;;
50417;SDS011;36346;48.280;14.292;2023-09-19T12:53:41;1.28;;;1.28;;
50417;SDS011;36346;48.280;14.292;2023-09-19T12:56:12;1.24;;;1.24;;
50417;SDS011;36346;48.280;14.292;2023-09-19T12:58:55;1.37;;;1.37;;
50417;SDS011;36346;48.280;14.292;2023-09-19T13:01:24;1.26;;;1.26;;
50417;SDS011;36346;48.280;14.292;2023-09-19T13:04:15;1.29;;;1.29;;
50417;SDS011;36346;48.280;14.292;2023-09-19T13:06:48;1.30;;;1.30;;
50417;SDS011;36346;48.280;14.292;2023-09-19T13:09:21;1.25;;;1.25;;
50417;SDS011;36346;48.280;14.292;2023-09-19T13:11:52;1.14;;;1.14;;
50417;SDS011;36346;48.280;14.292;2023-09-19T13:14:22;1.23;;;1.23;;
50417;SDS011;36346;48.280;14.292;2023-09-19T13:22:03;1.10;;;1.10;;
50417;SDS011;36346;48.280;14.292;2023-09-19T13:24:31;1.14;;;1.14;;
50417;SDS011;36346;48.280;14.292;2023-09-19T13:27:02;1.11;;;1.11;;
50417;SDS011;36346;48.280;14.292;2023-09-19T13:29:31;1.01;;;1.01;;
50417;SDS011;36346;48.280;14.292;2023-09-19T13:32:01;1.36;;;1.36;;
50417;SDS011;36346;48.280;14.292;2023-09-19T13:34:30;1.38;;;1.38;;
50417;SDS011;36346;48.280;14.292;2023-09-19T13:36:59;1.24;;;1.24;;
50417;SDS011;36346;48.280;14.292;2023-09-19T13:39:27;1.56;;;1.56;;
50417;SDS011;36346;48.280;14.292;2023-09-19T13:41:55;1.00;;;1.00;;
50417;SDS011;36346;48.280;14.292;2023-09-19T13:44:24;0.66;;;0.66;;
50417;SDS011;36346;48.280;14.292;2023-09-19T13:46:51;0.64;;;0.64;;
50417;SDS011;36346;48.280;14.292;2023-09-19T13:49:21;0.91;;;0.91;;
50417;SDS011;36346;48.280;14.292;2023-09-19T13:51:49;0.83;;;0.82;;
50417;SDS011;36346;48.280;14.292;2023-09-19T13:54:17;0.79;;;0.77;;
50417;SDS011;36346;48.280;14.292;2023-09-19T13:56:45;0.67;;;0.66;;
50417;SDS011;36346;48.280;14.292;2023-09-19T13:59:12;0.74;;;0.72;;
50417;SDS011;36346;48.280;14.292;2023-09-19T14:01:41;0.84;;;0.82;;
50417;SDS011;36346;48.280;14.292;2023-09-19T14:04:09;0.84;;;0.82;;
50417;SDS011;36346;48.280;14.292;2023-09-19T14:06:41;1.03;;;1.00;;
50417;SDS011;36346;48.280;14.292;2023-09-19T14:09:10;0.79;;;0.77;;
50417;SDS011;36346;48.280;14.292;2023-09-19T14:11:39;0.83;;;0.81;;
50417;SDS011;36346;48.280;14.292;2023-09-19T14:14:09;0.62;;;0.61;;
50417;SDS011;36346;48.280;14.292;2023-09-19T14:16:38;0.89;;;0.87;;
50417;SDS011;36346;48.280;14.292;2023-09-19T14:19:08;0.82;;;0.81;;
50417;SDS011;36346;48.280;14.292;2023-09-19T14:21:36;0.97;;;0.95;;
50417;SDS011;36346;48.280;14.292;2023-09-19T14:24:05;0.83;;;0.82;;
50417;SDS011;36346;48.280;14.292;2023-09-19T14:26:37;0.85;;;0.84;;
50417;SDS011;36346;48.280;14.292;2023-09-19T14:29:05;1.11;;;1.10;;
50417;SDS011;36346;48.280;14.292;2023-09-19T14:31:37;1.14;;;1.13;;
50417;SDS011;36346;48.280;14.292;2023-09-19T14:34:07;1.12;;;1.12;;
50417;SDS011;36346;48.280;14.292;2023-09-19T14:36:39;1.12;;;1.11;;
50417;SDS011;36346;48.280;14.292;2023-09-19T14:39:07;0.64;;;0.64;;
50417;SDS011;36346;48.280;14.292;2023-09-19T14:41:35;0.92;;;0.92;;
50417;SDS011;36346;48.280;14.292;2023-09-19T14:44:04;1.40;;;1.40;;
50417;SDS011;36346;48.280;14.292;2023-09-19T14:46:32;0.80;;;0.80;;
50417;SDS011;36346;48.280;14.292;2023-09-19T14:49:01;0.79;;;0.79;;
50417;SDS011;36346;48.280;14.292;2023-09-19T14:51:31;0.95;;;0.95;;
50417;SDS011;36346;48.280;14.292;2023-09-19T14:53:59;0.74;;;0.74;;
50417;SDS011;36346;48.280;14.292;2023-09-19T14:56:29;0.60;;;0.60;;
50417;SDS011;36346;48.280;14.292;2023-09-19T14:58:58;0.92;;;0.92;;
50417;SDS011;36346;48.280;14.292;2023-09-19T15:01:27;0.92;;;0.92;;
50417;SDS011;36346;48.280;14.292;2023-09-19T15:03:55;1.00;;;1.00;;
50417;SDS011;36346;48.280;14.292;2023-09-19T15:06:23;0.94;;;0.94;;
50417;SDS011;36346;48.280;14.292;2023-09-19T15:08:54;0.97;;;0.97;;
50417;SDS011;36346;48.280;14.292;2023-09-19T15:11:22;0.86;;;0.86;;
50417;SDS011;36346;48.280;14.292;2023-09-19T15:13:50;1.00;;;1.00;;
50417;SDS011;36346;48.280;14.292;2023-09-19T15:16:18;1.22;;;1.21;;
50417;SDS011;36346;48.280;14.292;2023-09-19T15:18:47;1.40;;;1.40;;
50417;SDS011;36346;48.280;14.292;2023-09-19T15:21:15;0.94;;;0.94;;
50417;SDS011;36346;48.280;14.292;2023-09-19T15:23:43;0.72;;;0.72;;
50417;SDS011;36346;48.280;14.292;2023-09-19T15:26:12;0.75;;;0.75;;
50417;SDS011;36346;48.280;14.292;2023-09-19T15:28:41;1.01;;;1.01;;
50417;SDS011;36346;48.280;14.292;2023-09-19T15:31:12;0.90;;;0.90;;
50417;SDS011;36346;48.280;14.292;2023-09-19T15:33:40;0.95;;;0.95;;
50417;SDS011;36346;48.280;14.292;2023-09-19T15:38:56;1.15;;;1.15;;
50417;SDS011;36346;48.280;14.292;2023-09-19T15:41:25;0.95;;;0.95;;
50417;SDS011;36346;48.280;14.292;2023-09-19T15:43:55;1.93;;;1.93;;
50417;SDS011;36346;48.280;14.292;2023-09-19T15:46:23;1.88;;;1.88;;
50417;SDS011;36346;48.280;14.292;2023-09-19T15:48:53;1.22;;;1.22;;
50417;SDS011;36346;48.280;14.292;2023-09-19T15:51:21;1.18;;;1.18;;
50417;SDS011;36346;48.280;14.292;2023-09-19T15:53:53;1.25;;;1.25;;
50417;SDS011;36346;48.280;14.292;2023-09-19T15:56:22;1.18;;;1.18;;